Time;durP1;ratioP1;P1;durP2;ratioP2;P2;SDS_P1;SDS_P2;PMS_P1;PMS_P2;Temp;Humidity;BMP_temperature;BMP_pressure;BME280_temperature;BME280_humidity;BME280_pressure;Samples;Min_cycle;Max_cycle;Signal;HPM_P1;HPM_P2
2023/01/20 00:01:45;;;;;;;16.08;9.20;;;;;;;2.88;100.00;99911.59;5058924;28;20056;-72
2023/01/20 00:04:14;;;;;;;14.77;8.57;;;;;;;2.89;100.00;99915.13;5059722;28;20052;-71
2023/01/20 00:06:42;;;;;;;14.30;9.48;;;;;;;2.88;100.00;99924.31;5044368;28;20052;-71
2023/01/20 00:09:15;;;;;;;14.40;9.00;;;;;;;2.90;100.00;99930.28;5061093;28;20052;-71
2023/01/20 00:11:43;;;;;;;11.75;8.52;;;;;;;2.76;100.00;99916.25;5061021;28;20056;-71
2023/01/20 00:14:12;;;;;;;12.95;7.80;;;;;;;2.67;100.00;99922.06;5060999;28;20158;-72
2023/01/20 00:16:41;;;;;;;13.73;9.27;;;;;;;2.68;100.00;99923.72;5060779;28;20056;-72
2023/01/20 00:19:13;;;;;;;15.18;7.82;;;;;;;2.72;100.00;99917.81;5060856;28;20055;-71
2023/01/20 00:21:41;;;;;;;11.45;8.30;;;;;;;2.75;100.00;99925.44;5060922;28;20063;-71
2023/01/20 00:24:10;;;;;;;16.45;8.73;;;;;;;2.78;100.00;99931.16;5061061;28;20052;-72
2023/01/20 00:26:38;;;;;;;17.77;7.95;;;;;;;2.71;100.00;99927.81;5060754;28;20059;-72
2023/01/20 00:29:07;;;;;;;12.43;7.35;;;;;;;2.88;100.00;99929.72;5060464;28;20493;-72
2023/01/20 00:31:35;;;;;;;13.07;8.13;;;;;;;2.82;100.00;99928.78;5060684;28;20051;-72
2023/01/20 00:34:04;;;;;;;15.90;9.40;;;;;;;2.64;100.00;99933.34;5060260;28;20055;-72
2023/01/20 00:36:33;;;;;;;14.15;8.57;;;;;;;2.66;100.00;99925.84;5071789;28;20044;-72
2023/01/20 00:39:02;;;;;;;10.98;7.30;;;;;;;2.61;100.00;99936.56;5076571;28;20052;-72
2023/01/20 00:41:31;;;;;;;18.13;8.77;;;;;;;2.54;100.00;99934.00;5076640;28;20421;-72
2023/01/20 00:43:59;;;;;;;10.38;7.15;;;;;;;2.65;100.00;99939.59;5076575;28;20044;-72
2023/01/20 00:46:27;;;;;;;15.45;7.93;;;;;;;2.71;100.00;99938.63;5076805;28;20048;-72
2023/01/20 00:48:56;;;;;;;11.20;7.47;;;;;;;2.68;100.00;99934.53;5072950;28;20040;-72
2023/01/20 00:51:24;;;;;;;13.63;7.47;;;;;;;2.65;100.00;99934.19;5040472;28;20055;-72
2023/01/20 00:53:52;;;;;;;10.45;7.38;;;;;;;2.72;100.00;99942.13;5086423;28;20047;-72
2023/01/20 00:56:20;;;;;;;13.23;6.75;;;;;;;2.75;100.00;99944.34;5063113;28;20078;-72
2023/01/20 00:58:48;;;;;;;11.32;7.32;;;;;;;2.63;100.00;99937.13;5061982;28;20051;-72
2023/01/20 01:01:17;;;;;;;11.23;7.05;;;;;;;2.43;100.00;99951.06;5063476;28;20051;-72
2023/01/20 01:03:45;;;;;;;11.05;6.50;;;;;;;2.50;100.00;99953.63;5084713;28;20055;-72
2023/01/20 01:06:16;;;;;;;13.30;7.07;;;;;;;2.53;100.00;99945.88;5060074;28;20044;-72
2023/01/20 01:08:44;;;;;;;10.45;7.30;;;;;;;2.49;100.00;99960.09;5043611;28;20048;-72
2023/01/20 01:11:13;;;;;;;9.63;6.53;;;;;;;2.49;100.00;99960.91;5059814;28;20056;-72
2023/01/20 01:13:41;;;;;;;12.77;6.78;;;;;;;2.61;100.00;99957.34;5075627;28;20048;-72
2023/01/20 01:16:11;;;;;;;10.85;6.28;;;;;;;2.58;100.00;99963.25;5096258;28;20394;-72
2023/01/20 01:18:40;;;;;;;11.75;7.15;;;;;;;2.48;100.00;99958.44;5096414;28;20508;-72
2023/01/20 01:21:13;;;;;;;9.95;6.32;;;;;;;2.39;100.00;99961.53;5096300;28;20509;-72
2023/01/20 01:23:42;;;;;;;10.13;6.43;;;;;;;2.42;100.00;99969.19;5079645;28;20048;-72
2023/01/20 01:26:11;;;;;;;12.73;7.75;;;;;;;2.37;100.00;99969.06;5095953;28;20062;-72
2023/01/20 01:28:39;;;;;;;11.95;6.40;;;;;;;2.49;100.00;99965.50;5095685;28;20059;-72
2023/01/20 01:31:08;;;;;;;10.77;7.30;;;;;;;2.48;100.00;99966.53;5096317;28;20050;-72
2023/01/20 01:33:37;;;;;;;12.27;7.28;;;;;;;2.41;100.00;99972.91;5095883;28;20051;-72
2023/01/20 01:36:07;;;;;;;11.70;7.35;;;;;;;2.19;100.00;99959.25;5078750;28;20047;-72
2023/01/20 01:38:35;;;;;;;13.02;8.05;;;;;;;2.24;100.00;99966.63;5095490;28;20058;-72
2023/01/20 01:41:04;;;;;;;16.30;8.23;;;;;;;2.24;100.00;99955.81;5043138;28;20044;-72
2023/01/20 01:43:35;;;;;;;12.35;7.18;;;;;;;2.37;100.00;99968.25;5059367;28;20052;-72
2023/01/20 01:46:04;;;;;;;9.85;6.05;;;;;;;2.23;100.00;99957.72;5059372;28;20048;-72
2023/01/20 01:48:37;;;;;;;10.02;6.70;;;;;;;2.17;100.00;99950.59;5043692;28;20044;-71
2023/01/20 01:51:11;;;;;;;10.75;6.40;;;;;;;2.30;100.00;99943.25;5042769;28;20406;-72
2023/01/20 01:53:46;;;;;;;10.77;7.10;;;;;;;2.26;100.00;99945.63;5041423;28;20503;-72
2023/01/20 01:56:15;;;;;;;14.63;6.63;;;;;;;1.94;100.00;99941.47;5052220;28;20394;-72
2023/01/20 01:58:47;;;;;;;9.65;5.22;;;;;;;1.90;100.00;99944.91;5059054;28;20060;-72
2023/01/20 02:01:16;;;;;;;9.35;5.93;;;;;;;2.03;100.00;99928.44;5042626;28;20051;-71
2023/01/20 02:03:59;;;;;;;14.35;6.00;;;;;;;2.03;100.00;99933.84;5058621;28;20051;-71
2023/01/20 02:06:32;;;;;;;10.40;5.82;;;;;;;1.92;100.00;99938.22;5042222;28;20063;-72
2023/01/20 02:09:02;;;;;;;7.45;5.25;;;;;;;1.92;100.00;99942.78;5068986;28;20054;-71
2023/01/20 02:11:36;;;;;;;11.18;6.13;;;;;;;1.69;100.00;99941.75;5055032;28;20053;-72
2023/01/20 02:14:06;;;;;;;8.27;5.40;;;;;;;1.57;100.00;99931.78;5071940;28;20052;-71
2023/01/20 02:16:46;;;;;;;9.93;5.28;;;;;;;1.65;100.00;99932.50;5071643;28;20053;-72
2023/01/20 02:19:21;;;;;;;9.32;4.95;;;;;;;1.63;100.00;99930.03;5071026;28;20495;-71
2023/01/20 02:22:14;;;;;;;5.63;4.20;;;;;;;1.44;100.00;99934.75;5071923;28;20391;-71
2023/01/20 02:25:14;;;;;;;6.63;4.28;;;;;;;1.42;100.00;99931.47;5059209;28;20052;-71
2023/01/20 02:28:14;;;;;;;5.45;4.07;;;;;;;1.54;100.00;99929.59;5051150;28;20056;-72
2023/01/20 02:30:57;;;;;;;7.20;4.80;;;;;;;1.50;100.00;99931.09;5051632;28;20510;-71
2023/01/20 02:33:35;;;;;;;8.32;4.55;;;;;;;1.55;100.00;99917.72;5051228;28;20057;-71
2023/01/20 02:36:29;;;;;;;5.90;4.38;;;;;;;1.59;100.00;99928.88;5049340;28;20045;-71
2023/01/20 02:39:16;;;;;;;4.67;4.07;;;;;;;1.41;100.00;99916.34;5060601;28;20399;-71
2023/01/20 02:41:54;;;;;;;6.95;4.18;;;;;;;1.32;100.00;99919.38;5071133;28;20325;-72
2023/01/20 02:44:48;;;;;;;5.22;4.35;;;;;;;1.43;100.00;99909.63;5071483;28;20044;-71
2023/01/20 02:47:51;;;;;;;8.23;4.78;;;;;;;1.22;100.00;99913.75;5079385;28;20056;-71
2023/01/20 02:50:33;;;;;;;5.82;4.00;;;;;;;1.17;100.00;99909.06;5068856;28;20490;-71
2023/01/20 02:53:03;;;;;;;6.32;4.40;;;;;;;1.10;100.00;99910.22;5051214;28;20041;-71
2023/01/20 02:55:31;;;;;;;6.43;3.90;;;;;;;1.12;100.00;99921.63;5034654;28;20399;-71
2023/01/20 02:58:04;;;;;;;5.38;3.92;;;;;;;1.02;100.00;99914.91;5050828;28;20048;-71
2023/01/20 03:00:39;;;;;;;6.85;3.97;;;;;;;0.99;100.00;99912.69;5034724;28;20536;-71
2023/01/20 03:03:16;;;;;;;7.65;4.65;;;;;;;0.96;100.00;99910.44;5034679;28;20049;-71
2023/01/20 03:05:53;;;;;;;5.47;4.72;;;;;;;1.00;100.00;99910.81;5038868;28;20489;-71
2023/01/20 03:08:25;;;;;;;4.97;4.07;;;;;;;0.97;100.00;99925.56;5050904;28;20075;-71
2023/01/20 03:11:01;;;;;;;6.57;4.15;;;;;;;1.03;100.00;99923.84;5052097;28;20049;-71
2023/01/20 03:13:38;;;;;;;7.47;4.45;;;;;;;0.94;100.00;99913.38;5041246;28;20047;-71
2023/01/20 03:16:11;;;;;;;6.30;4.20;;;;;;;0.95;100.00;99908.81;5040768;28;20055;-71
2023/01/20 03:18:39;;;;;;;5.80;4.47;;;;;;;0.93;100.00;99927.09;5057586;28;20060;-71
2023/01/20 03:21:09;;;;;;;6.15;4.05;;;;;;;0.89;100.00;99923.22;5057433;28;20048;-71
2023/01/20 03:23:43;;;;;;;5.55;3.70;;;;;;;0.99;100.00;99926.16;5057670;28;20058;-71
2023/01/20 03:26:13;;;;;;;8.05;4.30;;;;;;;1.04;100.00;99915.50;5041175;28;20053;-71
2023/01/20 03:28:47;;;;;;;7.97;4.20;;;;;;;1.07;100.00;99925.81;5059179;28;20498;-71
2023/01/20 03:31:24;;;;;;;8.27;4.55;;;;;;;0.98;100.00;99918.31;5059076;28;20426;-71
2023/01/20 03:33:56;;;;;;;5.82;4.38;;;;;;;0.97;100.00;99916.69;5054227;28;20064;-70
2023/01/20 03:36:28;;;;;;;5.22;4.47;;;;;;;0.98;100.00;99913.72;5073612;28;20063;-71
2023/01/20 03:38:58;;;;;;;7.28;4.80;;;;;;;0.95;100.00;99903.44;5056991;28;20048;-71
2023/01/20 03:41:45;;;;;;;6.45;4.53;;;;;;;1.08;100.00;99913.19;5056890;28;20058;-71
2023/01/20 03:44:24;;;;;;;8.60;4.72;;;;;;;1.12;100.00;99924.31;5041097;28;20410;-71
2023/01/20 03:47:16;;;;;;;8.77;5.80;;;;;;;1.07;100.00;99923.13;5057376;28;20608;-71
2023/01/20 03:50:06;;;;;;;7.80;4.75;;;;;;;1.16;100.00;99925.47;5041231;28;20044;-71
2023/01/20 03:52:37;;;;;;;9.18;5.70;;;;;;;0.96;100.00;99920.41;5040607;28;20487;-71
2023/01/20 03:55:17;;;;;;;10.02;5.03;;;;;;;1.00;100.00;99930.50;5042249;28;20044;-71
2023/01/20 03:57:57;;;;;;;6.70;4.57;;;;;;;0.97;100.00;99930.16;5044932;28;20052;-71
2023/01/20 04:00:27;;;;;;;9.95;6.00;;;;;;;0.91;100.00;99923.81;5041437;28;20036;-71
2023/01/20 04:02:59;;;;;;;9.55;5.38;;;;;;;1.05;100.00;99930.63;5044123;28;20039;-71
2023/01/20 04:05:28;;;;;;;10.70;5.45;;;;;;;1.04;100.00;99938.94;5077291;28;20056;-71
2023/01/20 04:08:02;;;;;;;10.02;5.32;;;;;;;1.11;100.00;99928.06;5067894;28;20051;-71
2023/01/20 04:10:34;;;;;;;11.02;5.70;;;;;;;1.20;100.00;99932.03;5076474;28;20051;-71
2023/01/20 04:13:02;;;;;;;12.05;5.78;;;;;;;1.18;100.00;99931.47;5059965;28;20048;-71
2023/01/20 04:15:39;;;;;;;8.20;5.38;;;;;;;1.29;100.00;99936.03;5060238;28;20056;-71
2023/01/20 04:18:18;;;;;;;7.55;4.93;;;;;;;1.33;100.00;99926.41;5086378;28;20056;-71
2023/01/20 04:20:50;;;;;;;9.02;6.20;;;;;;;1.35;100.00;99923.47;5068155;28;20060;-71
2023/01/20 04:23:30;;;;;;;7.30;4.97;;;;;;;1.38;100.00;99938.38;5037119;28;20044;-71
2023/01/20 04:25:59;;;;;;;9.00;5.35;;;;;;;1.32;100.00;99937.44;5037276;28;20056;-71
2023/01/20 04:28:27;;;;;;;6.63;4.70;;;;;;;1.20;100.00;99926.66;5045069;28;20048;-72
2023/01/20 04:30:55;;;;;;;9.13;5.60;;;;;;;1.37;100.00;99931.34;5057363;28;20048;-72
2023/01/20 04:33:23;;;;;;;8.93;5.38;;;;;;;1.20;100.00;99926.66;5060506;28;20052;-71
2023/01/20 04:35:52;;;;;;;7.65;5.35;;;;;;;1.13;100.00;99929.44;5043956;28;20055;-71
2023/01/20 04:38:20;;;;;;;6.55;4.60;;;;;;;1.06;100.00;99926.88;5067117;28;20043;-71
2023/01/20 04:40:48;;;;;;;7.93;4.68;;;;;;;0.97;100.00;99939.03;5065752;28;20048;-71
2023/01/20 04:43:17;;;;;;;8.38;4.53;;;;;;;0.89;100.00;99929.41;5094906;28;20059;-71
2023/01/20 04:45:45;;;;;;;8.82;4.90;;;;;;;0.79;100.00;99935.38;5064066;28;20054;-71
2023/01/20 04:48:13;;;;;;;5.55;4.53;;;;;;;0.73;100.00;99936.28;5096457;28;20055;-71
2023/01/20 04:50:42;;;;;;;12.70;5.72;;;;;;;0.71;100.00;99934.88;5063606;28;20079;-72
2023/01/20 04:53:12;;;;;;;7.78;5.13;;;;;;;0.63;100.00;99931.47;5096993;28;20051;-71
2023/01/20 04:55:40;;;;;;;9.85;4.88;;;;;;;0.78;100.00;99947.19;5096981;28;20486;-71
2023/01/20 04:58:09;;;;;;;8.30;4.65;;;;;;;0.83;100.00;99941.09;5061549;28;20051;-71
2023/01/20 05:00:37;;;;;;;7.95;5.45;;;;;;;0.79;100.00;99938.06;5095928;28;20040;-72
2023/01/20 05:03:06;;;;;;;8.52;5.55;;;;;;;0.88;100.00;99935.84;5063287;28;20059;-71
2023/01/20 05:05:35;;;;;;;8.82;5.60;;;;;;;0.81;100.00;99937.84;5096607;28;20405;-71
2023/01/20 05:08:03;;;;;;;9.73;5.15;;;;;;;0.81;100.00;99948.63;5095714;28;20047;-71
2023/01/20 05:10:32;;;;;;;7.15;5.28;;;;;;;0.82;100.00;99952.13;5096394;28;20043;-71
2023/01/20 05:13:00;;;;;;;7.03;4.40;;;;;;;0.88;100.00;99949.31;5062686;28;20044;-71
2023/01/20 05:15:28;;;;;;;6.35;4.75;;;;;;;0.89;100.00;99953.66;5062871;28;20040;-71
2023/01/20 05:17:56;;;;;;;8.52;5.05;;;;;;;0.98;100.00;99956.84;5095954;28;20051;-71
2023/01/20 05:20:25;;;;;;;9.45;5.88;;;;;;;1.06;100.00;99958.38;5062575;28;20044;-71
2023/01/20 05:22:53;;;;;;;7.10;5.00;;;;;;;1.16;100.00;99961.34;5062841;28;20055;-73
2023/01/20 05:25:21;;;;;;;9.88;5.68;;;;;;;1.19;100.00;99965.44;5063300;28;20490;-71
2023/01/20 05:27:49;;;;;;;12.63;6.28;;;;;;;1.26;100.00;99970.72;5051847;28;20044;-72
2023/01/20 05:30:18;;;;;;;10.38;5.63;;;;;;;1.30;100.00;99980.81;5056296;28;20478;-72
2023/01/20 05:32:50;;;;;;;11.98;6.22;;;;;;;1.28;100.00;99982.91;5062781;28;20051;-71
2023/01/20 05:35:19;;;;;;;7.65;5.15;;;;;;;1.32;100.00;99978.69;5063335;28;20044;-72
2023/01/20 05:37:47;;;;;;;7.40;5.40;;;;;;;1.30;100.00;99988.91;5085215;28;20040;-71
2023/01/20 05:40:16;;;;;;;7.93;4.72;;;;;;;1.36;100.00;99997.13;5077371;28;20052;-71
2023/01/20 05:42:44;;;;;;;9.82;5.05;;;;;;;1.31;100.00;99987.84;5042813;28;20048;-72
2023/01/20 05:45:12;;;;;;;7.35;4.68;;;;;;;1.28;100.00;99985.59;5042685;28;20521;-71
2023/01/20 05:47:41;;;;;;;9.10;5.07;;;;;;;1.33;100.00;99985.72;5042980;28;20048;-72
2023/01/20 05:50:10;;;;;;;6.90;5.88;;;;;;;1.39;100.00;99991.25;5060394;28;20048;-71
2023/01/20 05:52:38;;;;;;;6.18;4.30;;;;;;;1.34;100.00;99986.56;5065883;28;20415;-72
2023/01/20 05:55:07;;;;;;;8.63;4.72;;;;;;;1.37;100.00;99996.06;5086887;28;20059;-71
2023/01/20 05:57:35;;;;;;;8.52;4.95;;;;;;;1.31;100.00;99993.22;5078994;28;20048;-72
2023/01/20 06:00:05;;;;;;;8.15;5.68;;;;;;;1.34;100.00;99986.56;5062651;28;20063;-71
2023/01/20 06:02:35;;;;;;;10.43;5.57;;;;;;;1.43;100.00;100000.50;5086861;28;20526;-71
2023/01/20 06:05:04;;;;;;;8.57;4.80;;;;;;;1.38;100.00;99995.84;5090392;28;20059;-71
2023/01/20 06:07:32;;;;;;;9.27;4.90;;;;;;;1.31;100.00;99992.41;5095559;28;20513;-71
2023/01/20 06:10:01;;;;;;;9.02;5.15;;;;;;;1.34;100.00;99990.09;5057997;28;20528;-71
2023/01/20 06:12:29;;;;;;;7.82;4.70;;;;;;;1.61;100.00;99986.91;5070494;28;20055;-72
2023/01/20 06:14:57;;;;;;;10.57;5.40;;;;;;;1.62;100.00;99993.13;5039181;28;20037;-71
2023/01/20 06:17:26;;;;;;;8.90;4.68;;;;;;;1.67;100.00;99992.44;5039956;28;20045;-71
2023/01/20 06:19:54;;;;;;;7.63;4.28;;;;;;;1.58;100.00;99991.97;5057319;28;20048;-71
2023/01/20 06:22:22;;;;;;;5.25;3.78;;;;;;;1.57;100.00;99990.31;5057382;28;20048;-71
2023/01/20 06:24:51;;;;;;;7.38;4.68;;;;;;;1.53;100.00;99994.53;5091286;28;20386;-71
2023/01/20 06:27:19;;;;;;;7.20;3.88;;;;;;;1.51;100.00;99997.47;5073994;28;20052;-71
2023/01/20 06:29:47;;;;;;;7.15;4.30;;;;;;;1.64;100.00;100003.69;5113115;28;20047;-71
2023/01/20 06:32:15;;;;;;;7.15;4.20;;;;;;;1.52;100.00;99993.69;5078885;28;20490;-71
2023/01/20 06:34:44;;;;;;;7.88;3.65;;;;;;;1.44;100.00;100011.06;5054432;28;20509;-72
2023/01/20 06:37:13;;;;;;;8.85;3.75;;;;;;;1.33;100.00;99995.69;5087918;28;20053;-71
2023/01/20 06:39:41;;;;;;;9.18;3.70;;;;;;;1.50;100.00;100009.31;5072580;28;20059;-71
2023/01/20 06:42:09;;;;;;;4.88;3.47;;;;;;;1.44;100.00;100016.47;5101911;28;20047;-71
2023/01/20 06:44:38;;;;;;;5.25;3.65;;;;;;;1.52;100.00;100026.06;5072924;28;20056;-71
2023/01/20 06:47:09;;;;;;;7.80;3.83;;;;;;;1.52;100.00;100023.38;5099729;28;20071;-72
2023/01/20 06:49:39;;;;;;;6.10;3.67;;;;;;;1.32;100.00;100016.44;5112813;28;20040;-72
2023/01/20 06:52:08;;;;;;;5.63;3.65;;;;;;;1.65;100.00;100016.13;5112172;28;20133;-72
2023/01/20 06:54:36;;;;;;;6.65;4.20;;;;;;;1.88;99.97;100024.22;5112693;28;20040;-72
2023/01/20 06:57:04;;;;;;;7.88;4.07;;;;;;;1.82;97.58;100018.94;5112826;28;20498;-72
2023/01/20 06:59:33;;;;;;;8.68;3.85;;;;;;;2.00;97.90;100037.69;5112602;28;20062;-72
2023/01/20 07:02:00;;;;;;;5.43;4.13;;;;;;;2.10;97.10;100042.50;5112875;28;20047;-72
2023/01/20 07:04:29;;;;;;;9.10;4.53;;;;;;;2.16;97.11;100048.84;5112619;28;20058;-72
2023/01/20 07:06:57;;;;;;;6.63;3.97;;;;;;;2.14;97.59;100032.88;5112696;28;20073;-72
2023/01/20 07:09:25;;;;;;;5.97;4.20;;;;;;;2.09;97.70;100031.91;5112459;28;20044;-72
2023/01/20 07:11:53;;;;;;;7.15;4.78;;;;;;;1.96;98.43;100041.09;5112326;28;20043;-72
2023/01/20 07:14:21;;;;;;;6.22;3.55;;;;;;;2.04;98.40;100056.13;5112454;28;20051;-72
2023/01/20 07:16:49;;;;;;;5.47;3.70;;;;;;;2.19;97.52;100061.84;5094541;28;20036;-72
2023/01/20 07:19:20;;;;;;;5.97;4.45;;;;;;;2.22;96.92;100058.69;5112416;28;20048;-72
2023/01/20 07:21:48;;;;;;;7.60;4.13;;;;;;;2.46;96.05;100068.63;5094263;28;20047;-72
2023/01/20 07:24:16;;;;;;;6.05;3.75;;;;;;;2.44;96.62;100062.63;5112317;28;20043;-72
2023/01/20 07:26:44;;;;;;;7.43;4.65;;;;;;;2.41;97.30;100069.34;5112266;28;20055;-72
2023/01/20 07:29:12;;;;;;;5.75;4.15;;;;;;;2.26;99.00;100067.13;5112437;28;20059;-72
2023/01/20 07:31:43;;;;;;;4.95;3.78;;;;;;;2.19;98.52;100077.25;5112242;28;20425;-72
2023/01/20 07:34:11;;;;;;;9.40;4.20;;;;;;;2.10;98.83;100077.59;5093989;28;20043;-72
2023/01/20 07:36:39;;;;;;;10.38;5.28;;;;;;;2.16;99.50;100083.94;5111979;28;20044;-72
2023/01/20 07:39:11;;;;;;;9.20;5.18;;;;;;;2.17;99.33;100087.44;5112378;28;20055;-73
2023/01/20 07:41:40;;;;;;;10.20;4.88;;;;;;;2.22;98.64;100084.84;5112198;28;20478;-72
2023/01/20 07:44:09;;;;;;;7.90;5.18;;;;;;;2.27;97.52;100085.81;5112149;28;20482;-73
2023/01/20 07:46:37;;;;;;;8.90;4.97;;;;;;;2.12;96.74;100091.69;5112100;28;20051;-72
2023/01/20 07:49:05;;;;;;;8.15;4.47;;;;;;;2.40;96.27;100089.31;5112031;28;20054;-73
2023/01/20 07:51:33;;;;;;;5.78;4.25;;;;;;;2.57;96.48;100104.75;5112115;28;20046;-73
2023/01/20 07:54:03;;;;;;;9.40;4.93;;;;;;;2.59;94.55;100100.75;5093880;28;20043;-73
2023/01/20 07:56:31;;;;;;;8.95;4.95;;;;;;;2.83;92.68;100111.50;5112130;28;20498;-73
2023/01/20 07:58:59;;;;;;;7.20;4.80;;;;;;;2.90;94.51;100106.81;5111933;28;20048;-73
2023/01/20 08:01:30;;;;;;;7.53;4.82;;;;;;;2.86;91.04;100116.44;5112156;28;20051;-73
2023/01/20 08:04:04;;;;;;;5.90;4.28;;;;;;;2.87;88.67;100128.88;5116148;28;20051;-73
2023/01/20 08:06:32;;;;;;;;;;;;;;;3.01;87.93;100125.91;5116553;28;20052;-73
2023/01/20 08:09:01;;;;;;;9.68;4.32;;;;;;;3.13;86.83;100113.16;5116134;28;20385;-73
2023/01/20 08:11:30;;;;;;;7.38;5.05;;;;;;;3.06;86.96;100117.91;5115656;28;20047;-73
2023/01/20 08:13:59;;;;;;;8.10;4.38;;;;;;;3.06;88.23;100126.00;5115798;28;20047;-73
2023/01/20 08:16:27;;;;;;;6.55;4.63;;;;;;;3.20;86.35;100113.84;5115822;28;20040;-72
2023/01/20 08:18:55;;;;;;;6.25;3.83;;;;;;;3.28;85.50;100125.34;5097828;28;20066;-73
2023/01/20 08:21:29;;;;;;;4.88;4.25;;;;;;;3.32;86.18;100124.59;5115809;28;20063;-73
2023/01/20 08:23:58;;;;;;;8.63;4.57;;;;;;;3.48;84.58;100125.69;5115641;28;20394;-73
2023/01/20 08:26:28;;;;;;;7.13;4.70;;;;;;;3.55;86.02;100124.72;5115692;28;20058;-74
2023/01/20 08:29:05;;;;;;;6.13;4.28;;;;;;;3.87;85.98;100132.31;5115682;28;20405;-74
2023/01/20 08:31:33;;;;;;;9.15;4.90;;;;;;;4.13;84.95;100127.28;5115823;28;20055;-74
2023/01/20 08:34:02;;;;;;;10.65;4.75;;;;;;;3.98;85.03;100127.84;5096767;28;20498;-74
2023/01/20 08:36:34;;;;;;;6.38;4.47;;;;;;;4.15;86.10;100139.50;5115571;28;20047;-74
2023/01/20 08:39:05;;;;;;;6.65;4.85;;;;;;;4.39;86.12;100143.88;5097188;28;20052;-74
2023/01/20 08:41:38;;;;;;;;;;;;;;;4.68;84.68;100146.44;5115919;28;20048;-74
2023/01/20 08:44:06;;;;;;;9.20;4.13;;;;;;;4.83;84.20;100143.13;5096493;28;20398;-74
2023/01/20 08:46:36;;;;;;;5.85;4.03;;;;;;;5.30;82.44;100133.63;5115422;28;20046;-74
2023/01/20 08:49:14;;;;;;;5.50;4.10;;;;;;;5.69;80.50;100142.66;5115836;28;20043;-73
2023/01/20 08:51:43;;;;;;;5.57;4.00;;;;;;;5.76;78.37;100135.13;5115246;28;20047;-73
2023/01/20 08:54:13;;;;;;;4.10;3.70;;;;;;;5.91;74.03;100146.13;5096891;28;20047;-74
2023/01/20 08:56:49;;;;;;;3.30;2.80;;;;;;;6.01;71.57;100133.72;5115267;28;20482;-74
2023/01/20 08:59:17;;;;;;;4.03;3.13;;;;;;;6.28;69.00;100147.25;5096373;28;20044;-74
2023/01/20 09:01:45;;;;;;;3.65;2.80;;;;;;;6.28;64.14;100143.69;5115028;28;20043;-74
2023/01/20 09:04:13;;;;;;;5.05;3.03;;;;;;;6.13;62.53;100147.94;5114963;28;20040;-74
2023/01/20 09:06:49;;;;;;;5.75;2.80;;;;;;;6.37;64.59;100147.56;5115073;28;20043;-74
2023/01/20 09:09:19;;;;;;;3.30;2.65;;;;;;;6.39;62.41;100150.00;5115044;28;20040;-74
2023/01/20 09:11:50;;;;;;;2.67;2.47;;;;;;;6.42;58.79;100166.63;5114955;28;20401;-74
2023/01/20 09:14:20;;;;;;;5.05;2.63;;;;;;;6.29;58.63;100150.75;5095356;28;20047;-74
2023/01/20 09:16:49;;;;;;;4.13;2.75;;;;;;;6.62;60.66;100170.53;5114829;28;20043;-74
2023/01/20 09:19:17;;;;;;;6.38;2.95;;;;;;;6.82;62.03;100152.69;5096086;28;20063;-74
2023/01/20 09:21:45;;;;;;;4.30;2.97;;;;;;;7.11;59.31;100166.69;5114713;28;20052;-74
2023/01/20 09:24:13;;;;;;;4.95;2.70;;;;;;;7.21;60.77;100154.19;5095867;28;20040;-74
2023/01/20 09:26:41;;;;;;;3.70;2.70;;;;;;;7.43;61.43;100170.28;5114383;28;20044;-74
2023/01/20 09:29:15;;;;;;;3.20;2.90;;;;;;;7.64;60.90;100167.63;5095648;28;20494;-75
2023/01/20 09:31:49;;;;;;;5.00;3.08;;;;;;;7.83;60.53;100178.00;5114408;28;20043;-75
2023/01/20 09:34:23;;;;;;;3.33;2.65;;;;;;;7.77;60.12;100175.25;5096021;28;20398;-74
2023/01/20 09:36:53;;;;;;;4.15;2.70;;;;;;;7.56;60.31;100168.13;5114301;28;20482;-74
2023/01/20 09:45:24;;;;;;;4.28;3.05;;;;;;;7.36;61.34;100189.63;5113996;28;20043;-74
2023/01/20 09:54:42;;;;;;;4.68;3.03;;;;;;;7.30;65.62;100193.41;5113897;28;20050;-75
2023/01/20 09:57:12;;;;;;;3.20;2.75;;;;;;;7.29;60.78;100201.84;5084175;28;20047;-74
2023/01/20 10:00:00;;;;;;;3.72;2.80;;;;;;;7.83;62.68;100197.88;5113765;28;20047;-74
2023/01/20 10:02:33;;;;;;;5.68;3.20;;;;;;;8.30;61.11;100193.25;5113897;28;20054;-75
2023/01/20 10:05:13;;;;;;;6.83;3.07;;;;;;;8.55;63.27;100193.53;5113760;28;20050;-74
2023/01/20 10:07:55;;;;;;;3.50;3.13;;;;;;;8.80;59.09;100178.19;5113870;28;20051;-75
2023/01/20 10:10:59;;;;;;;3.65;3.03;;;;;;;9.03;58.62;100184.91;5114041;28;20051;-74
2023/01/20 10:13:40;;;;;;;4.95;3.45;;;;;;;9.25;59.13;100186.47;5077614;28;20048;-75
2023/01/20 10:16:11;;;;;;;6.47;3.53;;;;;;;9.87;58.77;100180.59;5113574;28;20043;-75
2023/01/20 10:18:47;;;;;;;4.40;3.38;;;;;;;9.76;56.14;100184.50;5113577;28;20043;-75
2023/01/20 10:21:35;;;;;;;4.97;2.80;;;;;;;9.53;51.95;100192.31;5113311;28;20052;-75
2023/01/20 10:24:08;;;;;;;5.75;3.42;;;;;;;9.69;57.00;100190.31;5095147;28;20043;-75
2023/01/20 10:26:44;;;;;;;5.63;3.88;;;;;;;9.01;59.64;100181.66;5113241;28;20531;-75
2023/01/20 10:29:18;;;;;;;5.68;3.50;;;;;;;9.30;60.31;100183.72;5113284;28;20050;-75
2023/01/20 10:31:58;;;;;;;2.72;2.33;;;;;;;9.43;53.96;100174.06;5113233;28;20500;-75
2023/01/20 10:34:35;;;;;;;4.30;2.75;;;;;;;9.79;55.87;100176.56;5113287;28;20054;-75
2023/01/20 10:37:06;;;;;;;2.60;2.05;;;;;;;9.66;52.36;100174.47;5113377;28;20390;-75
2023/01/20 10:40:00;;;;;;;3.05;2.75;;;;;;;10.14;56.72;100173.00;5095012;28;20044;-75
2023/01/20 10:42:28;;;;;;;;;;;;;;;9.43;51.95;100176.00;5113508;28;20054;-75
2023/01/20 10:44:58;;;;;;;2.65;1.67;;;;;;;9.42;52.45;100169.69;5112967;28;19920;-75
2023/01/20 10:47:38;;;;;;;2.15;1.80;;;;;;;9.65;53.86;100168.22;5113102;28;20047;-75
2023/01/20 10:50:31;;;;;;;2.80;2.17;;;;;;;9.22;53.85;100167.91;5113076;28;20044;-75
2023/01/20 10:53:32;;;;;;;3.00;2.08;;;;;;;9.54;52.00;100172.09;5112956;28;20055;-75
2023/01/20 10:56:35;;;;;;;2.42;2.10;;;;;;;9.11;51.97;100169.88;5112826;28;20050;-75
2023/01/20 10:59:44;;;;;;;4.90;2.75;;;;;;;8.82;54.68;100163.16;5112868;28;20048;-75
2023/01/20 11:02:24;;;;;;;4.18;2.67;;;;;;;8.80;56.80;100159.09;5050251;28;20160;-75
2023/01/20 11:04:59;;;;;;;5.72;3.05;;;;;;;8.43;57.68;100150.16;5112807;28;20051;-75
2023/01/20 11:07:30;;;;;;;5.95;3.08;;;;;;;9.02;56.43;100158.72;5094662;28;20044;-75
2023/01/20 11:10:12;;;;;;;5.50;2.63;;;;;;;9.13;56.26;100157.56;5113049;28;20056;-75
2023/01/20 11:12:42;;;;;;;2.63;1.95;;;;;;;9.11;53.63;100148.88;5112338;28;20052;-75
2023/01/20 11:15:22;;;;;;;2.80;2.20;;;;;;;9.05;52.94;100155.41;5112560;28;20046;-75
2023/01/20 11:18:14;;;;;;;3.67;2.35;;;;;;;9.27;53.64;100135.09;5094300;28;20040;-76
2023/01/20 11:20:48;;;;;;;3.17;2.63;;;;;;;9.49;55.68;100147.56;5104672;28;20055;-74
2023/01/20 11:23:23;;;;;;;6.03;2.72;;;;;;;9.07;55.75;100136.03;5112588;28;20489;-73
2023/01/20 11:25:59;;;;;;;2.53;2.33;;;;;;;9.31;54.59;100129.91;5112470;28;20074;-73
2023/01/20 11:28:36;;;;;;;2.80;2.53;;;;;;;9.45;57.17;100144.56;5094993;28;20063;-73
2023/01/20 11:31:04;;;;;;;3.00;2.75;;;;;;;9.54;56.22;100142.84;5112400;28;20047;-73
2023/01/20 11:33:32;;;;;;;2.75;2.22;;;;;;;9.62;54.38;100141.44;5112290;28;20062;-73
2023/01/20 11:36:06;;;;;;;3.67;2.25;;;;;;;9.78;55.98;100128.47;5111950;28;20043;-74
2023/01/20 11:39:00;;;;;;;3.38;2.03;;;;;;;9.07;56.18;100131.41;5112177;28;20050;-73
2023/01/20 11:41:30;;;;;;;6.07;1.90;;;;;;;9.10;54.46;100127.28;5109679;28;20055;-74
2023/01/20 11:43:59;;;;;;;2.83;2.40;;;;;;;9.53;55.84;100133.03;5112053;28;20051;-73
2023/01/20 11:46:30;;;;;;;4.03;2.17;;;;;;;9.76;53.57;100118.94;5112233;28;20052;-73
2023/01/20 11:49:15;;;;;;;3.20;2.60;;;;;;;9.44;51.98;100120.28;5094636;28;20043;-73
2023/01/20 11:51:51;;;;;;;2.40;2.20;;;;;;;9.49;52.20;100126.50;5112221;28;20497;-73
2023/01/20 11:54:28;;;;;;;3.78;2.38;;;;;;;9.34;51.27;100119.22;5112168;28;20046;-73
2023/01/20 11:57:00;;;;;;;3.67;1.98;;;;;;;9.47;53.69;100116.94;5112254;28;20058;-73
2023/01/20 11:59:30;;;;;;;2.63;2.30;;;;;;;9.62;51.90;100119.59;5127798;28;20048;-73
2023/01/20 12:02:23;;;;;;;4.90;2.72;;;;;;;9.44;50.25;100115.63;5112071;28;20498;-73
2023/01/20 12:05:07;;;;;;;2.97;2.45;;;;;;;9.38;53.11;100114.84;5112037;28;20036;-73
2023/01/20 12:07:46;;;;;;;;;;;;;;;9.48;51.73;100118.63;5112615;28;20051;-73
2023/01/20 12:10:28;;;;;;;7.50;2.60;;;;;;;9.05;54.60;100111.75;5112136;28;20392;-73